D/T METAR WX W/SPE G/SPE TEMP DEWP FEEL
31/01/23 08:00 EINN 310800Z 28009KT 9999 FEW017 SCT043 08/05 Q1026 NOSIG 10.4mph 8°C 5°C 7.3°C
31/01/23 07:30 EINN 310730Z 27009KT 9999 FEW022 SCT046 08/05 Q1026 NOSIG 10.4mph 8°C 5°C 7.3°C
31/01/23 06:00 EINN 310600Z 24009KT 9999 FEW025 BKN046 08/04 Q1026 NOSIG 10.4mph 8°C 4°C 7.0°C
31/01/23 05:00 EINN 310500Z 23010KT 9999 FEW020 BKN042 08/05 Q1026 NOSIG 11.5mph 8°C 5°C 7.3°C
31/01/23 03:30 EINN 310330Z 29010KT 9999 FEW015 SCT022 BKN032 09/07 Q1026 NOSIG 11.5mph 9°C 7°C 9.0°C
31/01/23 00:00 EINN 310000Z 23012KT 5000 -RADZ SCT010 BKN013 09/07 Q1025 TEMPO 3000 BKN007 -RA -DZ 13.8mph 9°C 7°C 9.0°C
30/01/23 19:00 EINN 301900Z 20008KT 9999 SCT028 BKN033 09/06 Q1026 NOSIG 9.2mph 9°C 6°C 8.6°C
30/01/23 13:00 EINN 301300Z 24012KT 9999 FEW025 SCT030 BKN044 09/04 Q1029 NOSIG 13.8mph 9°C 4°C 8.0°C
30/01/23 09:00 EINN 300900Z 25004KT 9999 OVC034 07/03 Q1028 NOSIG 4.6mph 7°C 3°C 5.7°C
30/01/23 08:30 EINN 300830Z 27006KT 9999 OVC030 07/03 Q1028 NOSIG 6.9mph 7°C 3°C 5.7°C
30/01/23 06:30 EINN 300630Z 28004KT 9999 FEW028 OVC035 07/02 Q1027 NOSIG 4.6mph 7°C 2°C 5.4°C
09/01/23 06:30 EINN 090630Z 28018KT 9999 FEW018CB BKN040 BKN140 06/01 Q1000 NOSIG 20.7mph 6°C 1°C 4.1°C
09/01/23 06:00 EINN 090600Z 27015KT 9999 FEW012 FEW018CB SCT040 BKN100 07/02 Q0999 NOSIG 17.3mph 7°C 2°C 5.4°C
09/01/23 05:30 EINN 090530Z 28015KT 9999 FEW018CB SCT039 BKN090 07/02 Q0998 NOSIG 17.3mph 7°C 2°C 5.4°C
09/01/23 05:00 EINN 090500Z 29015KT 9999 FEW018CB BKN034 06/02 Q0998 NOSIG 17.3mph 6°C 2°C 4.4°C
09/01/23 04:30 EINN 090430Z 29012KT 9999 -SHRA FEW018CB SCT040 BKN170 07/03 Q0997 NOSIG -SHRA 13.8mph 7°C 3°C 5.7°C
09/01/23 04:00 EINN 090400Z 28009KT 9999 -SHRA FEW018CB SCT033 BKN050 06/03 Q0997 NOSIG -SHRA 10.4mph 6°C 3°C 4.7°C
09/01/23 03:30 EINN 090330Z 28007KT 9999 FEW018CB SCT026 BKN042 06/04 Q0996 NOSIG 8.1mph 6°C 4°C 5.0°C
09/01/23 03:00 EINN 090300Z 27007KT 9999 FEW018CB SCT045 BKN130 06/03 Q0996 NOSIG 8.1mph 6°C 3°C 4.7°C
09/01/23 02:00 EINN 090200Z 29016KT 9999 FEW018CB SCT046 07/03 Q0994 NOSIG 18.4mph 7°C 3°C 5.7°C
09/01/23 01:30 EINN 090130Z 27015G27KT 9999 -SHRA FEW007 FEW018CB SCT025 BKN042 06/04 Q0993 NOSIG -SHRA 17.3mph 31.1mph 6°C 4°C 5.0°C
09/01/23 00:30 EINN 090030Z 28018KT 9999 -SHRA FEW018CB SCT034 BKN060 07/04 Q0992 NOSIG -SHRA 20.7mph 7°C 4°C 6.0°C
09/01/23 00:00 EINN 090000Z 29020G30KT 9999 -SHRA FEW013 FEW018CB BKN028 07/04 Q0991 NOSIG -SHRA 23.0mph 34.5mph 7°C 4°C 6.0°C
08/01/23 23:30 EINN 082330Z 27019KT 9999 -SHRA FEW010 FEW018CB SCT030 BKN100 07/04 Q0990 NOSIG -SHRA 21.9mph 7°C 4°C 6.0°C
08/01/23 23:00 EINN 082300Z 27012KT 9999 FEW013 FEW018CB SCT028 06/04 Q0990 NOSIG 13.8mph 6°C 4°C 5.0°C
08/01/23 22:30 EINN 082230Z 26013KT 9999 FEW013 FEW018CB SCT040 06/04 Q0990 NOSIG 15.0mph 6°C 4°C 5.0°C
08/01/23 22:00 EINN 082200Z 24012KT 9999 FEW018CB SCT035 06/03 Q0990 NOSIG 13.8mph 6°C 3°C 4.7°C
08/01/23 21:30 EINN 082130Z 27013KT 9999 FEW018CB SCT028 BKN120 06/03 Q0989 NOSIG 15.0mph 6°C 3°C 4.7°C
08/01/23 21:00 EINN 082100Z 26015KT 9000 -SHRA FEW010 FEW018CB BKN030 07/04 Q0989 NOSIG -SHRA 17.3mph 7°C 4°C 6.0°C
08/01/23 19:30 EINN 081930Z 25011KT 9999 FEW018CB BKN050 07/04 Q0987 NOSIG 12.7mph 7°C 4°C 6.0°C
08/01/23 19:00 EINN 081900Z 26013KT 9999 -SHRA FEW018CB BKN027 07/04 Q0987 NOSIG -SHRA 15.0mph 7°C 4°C 6.0°C
08/01/23 18:30 EINN 081830Z 26009KT 9999 FEW018CB BKN048 07/04 Q0986 NOSIG 10.4mph 7°C 4°C 6.0°C
08/01/23 18:00 EINN 081800Z 26018KT 9999 FEW018CB BKN025 07/05 Q0986 NOSIG 20.7mph 7°C 5°C 6.3°C
08/01/23 16:30 EINN 081630Z 25008KT 9999 FEW008 FEW018CB 07/05 Q0984 NOSIG 9.2mph 7°C 5°C 6.3°C
08/01/23 16:00 EINN 081600Z 25005KT 9999 FEW008 FEW018CB BKN025 07/05 Q0983 NOSIG 5.8mph 7°C 5°C 6.3°C
08/01/23 15:30 EINN 081530Z 24010KT 9999 FEW008 FEW018CB 06/05 Q0983 NOSIG 11.5mph 6°C 5°C 5.3°C
08/01/23 15:00 EINN 081500Z 23008KT 9999 -SHRA FEW008 FEW018CB SCT050 07/04 Q0982 NOSIG -SHRA 9.2mph 7°C 4°C 6.0°C
08/01/23 14:30 EINN 081430Z 24008KT 9999 FEW016 SCT044 07/04 Q0982 NOSIG 9.2mph 7°C 4°C 6.0°C
08/01/23 14:00 EINN 081400Z 23011KT 9999 FEW016 SCT044 07/04 Q0981 NOSIG 12.7mph 7°C 4°C 6.0°C
08/01/23 13:30 EINN 081330Z 22009KT 9999 FEW016 08/04 Q0981 NOSIG 10.4mph 8°C 4°C 7.0°C
08/01/23 13:00 EINN 081300Z 18008KT 9999 FEW014 FEW018CB SCT036 07/04 Q0981 NOSIG 9.2mph 7°C 4°C 6.0°C
08/01/23 12:30 EINN 081230Z 21013KT 9999 -SHRA FEW018CB SCT032 BKN100 06/03 Q0981 NOSIG -SHRA 15.0mph 6°C 3°C 4.7°C
08/01/23 12:00 EINN 081200Z 20013KT 9999 FEW015 FEW018CB BKN022 06/03 Q0981 NOSIG 15.0mph 6°C 3°C 4.7°C
08/01/23 11:30 EINN 081130Z 19013KT 9999 FEW018CB BKN048 07/03 Q0981 NOSIG 15.0mph 7°C 3°C 5.7°C
08/01/23 11:00 EINN 081100Z 21015KT 9999 FEW020 SCT046 06/02 Q0981 NOSIG 17.3mph 6°C 2°C 4.4°C
08/01/23 10:30 EINN 081030Z 19012KT 9999 FEW018CB SCT030 BKN050 05/02 Q0982 NOSIG 13.8mph 5°C 2°C 3.4°C
08/01/23 10:00 EINN 081000Z 18011KT 9999 FEW018CB BKN160 05/02 Q0981 NOSIG 12.7mph 5°C 2°C 3.4°C
08/01/23 09:30 EINN 080930Z 18012KT 9999 FEW018CB SCT220 04/01 Q0982 NOSIG 13.8mph 4°C 1°C 2.1°C
08/01/23 09:00 EINN 080900Z 19012KT 9999 FEW020 05/01 Q0982 NOSIG 13.8mph 5°C 1°C 3.1°C
08/01/23 08:30 EINN 080830Z 19012KT 9999 FEW020 05/01 Q0982 NOSIG 13.8mph 5°C 1°C 3.1°C
08/01/23 08:00 EINN 080800Z 17013KT 9999 FEW018CB 04/01 Q0982 NOSIG 15.0mph 4°C 1°C 2.1°C
08/01/23 07:30 EINN 080730Z 17013KT 9999 FEW018CB SCT050 BKN140 04/02 Q0982 NOSIG 15.0mph 4°C 2°C 2.4°C
08/01/23 07:00 EINN 080700Z 18012KT 9999 FEW018CB SCT200 05/02 Q0982 NOSIG 13.8mph 5°C 2°C 3.4°C
08/01/23 06:30 EINN 080630Z 19016KT 9999 FEW016 SCT100 BKN200 05/02 Q0983 TEMPO 4000 SHRA 18.4mph 5°C 2°C 3.4°C
08/01/23 06:00 EINN 080600Z 18013KT 9999 FEW018CB SCT200 05/02 Q0983 TEMPO 4000 SHRA 15.0mph 5°C 2°C 3.4°C
08/01/23 05:30 EINN 080530Z 19014KT 9999 FEW018CB SCT200 05/02 Q0983 TEMPO 4000 SHRA 16.1mph 5°C 2°C 3.4°C
08/01/23 05:00 EINN 080500Z 18016KT 9999 FEW018CB SCT060 BKN100 05/02 Q0983 TEMPO 4000 SHRA 18.4mph 5°C 2°C 3.4°C
08/01/23 04:30 EINN 080430Z 19013KT 9999 FEW018CB SCT060 BKN110 05/03 Q0984 TEMPO 4000 SHRA 15.0mph 5°C 3°C 3.7°C
08/01/23 04:00 EINN 080400Z 21013KT 9999 FEW018CB SCT029 BKN060 05/03 Q0984 TEMPO 4000 SHRA 15.0mph 5°C 3°C 3.7°C
08/01/23 03:30 EINN 080330Z 21019G33KT 9999 -SHRA FEW018CB BKN035 06/03 Q0985 TEMPO 4000 SHRA -SHRA 21.9mph 38.0mph 6°C 3°C 4.7°C
08/01/23 02:30 EINN 080230Z 20012KT 9999 FEW018CB SCT060 BKN160 07/02 Q0984 TEMPO 4000 SHRA 13.8mph 7°C 2°C 5.4°C
08/01/23 02:00 EINN 080200Z 22016KT 9999 FEW018CB SCT180 07/02 Q0984 NOSIG 18.4mph 7°C 2°C 5.4°C
08/01/23 01:00 EINN 080100Z 21012KT 9999 FEW018CB SCT160 07/03 Q0985 NOSIG 13.8mph 7°C 3°C 5.7°C
08/01/23 00:30 EINN 080030Z 22015KT 9999 FEW018CB SCT190 07/03 Q0985 NOSIG 17.3mph 7°C 3°C 5.7°C
08/01/23 00:00 EINN 080000Z 23022KT 9999 -SHRA FEW018CB SCT022 BKN060 08/04 Q0985 NOSIG -SHRA 25.3mph 8°C 4°C 7.0°C
07/01/23 23:30 EINN 072330Z 23019KT 9999 FEW018CB SCT022 BKN035 08/04 Q0985 NOSIG 21.9mph 8°C 4°C 7.0°C
07/01/23 23:00 EINN 072300Z 23014KT 9999 FEW018CB SCT042 07/05 Q0985 NOSIG 16.1mph 7°C 5°C 6.3°C
07/01/23 22:00 EINN 072200Z 24023KT 9999 FEW018CB BKN029 BKN190 09/03 Q0984 NOSIG 26.5mph 9°C 3°C 7.7°C
07/01/23 21:30 EINN 072130Z 24015KT 9999 FEW018CB SCT030 BKN150 09/05 Q0984 NOSIG 17.3mph 9°C 5°C 8.3°C
07/01/23 21:00 EINN 072100Z 23011KT 9999 FEW018CB BKN040 BKN140 08/05 Q0983 NOSIG 12.7mph 8°C 5°C 7.3°C
07/01/23 20:30 EINN 072030Z 23017KT 9999 -SHRA FEW018CB SCT050 BKN140 09/05 Q0983 NOSIG -SHRA 19.6mph 9°C 5°C 8.3°C
07/01/23 20:00 EINN 072000Z 24020KT 9999 FEW018CB SCT110 09/05 Q0982 NOSIG 23.0mph 9°C 5°C 8.3°C
07/01/23 19:30 EINN 071930Z 23023KT 9999 FEW018CB SCT060 09/05 Q0982 NOSIG 26.5mph 9°C 5°C 8.3°C
07/01/23 19:00 EINN 071900Z 22019KT 9999 FEW018CB SCT040 08/05 Q0981 NOSIG 21.9mph 8°C 5°C 7.3°C
07/01/23 18:30 EINN 071830Z 22016KT 9999 FEW018CB BKN035 08/06 Q0981 NOSIG 18.4mph 8°C 6°C 7.6°C
07/01/23 18:00 EINN 071800Z 22018KT 9999 FEW018CB BKN026 07/05 Q0981 NOSIG 20.7mph 7°C 5°C 6.3°C
07/01/23 17:30 EINN 071730Z 20013KT 9999 FEW018CB SCT040 08/04 Q0980 NOSIG 15.0mph 8°C 4°C 7.0°C
07/01/23 17:00 EINN 071700Z 20017KT 9999 FEW018CB SCT040 08/05 Q0980 NOSIG 19.6mph 8°C 5°C 7.3°C
07/01/23 16:00 EINN 071600Z 21022KT 9999 FEW018CB BKN046 07/04 Q0980 NOSIG 25.3mph 7°C 4°C 6.0°C
07/01/23 15:30 EINN 071530Z 20020KT 9999 FEW008 SCT018CB BKN035 07/04 Q0980 NOSIG 23.0mph 7°C 4°C 6.0°C
07/01/23 15:00 EINN 071500Z 20026G38KT 4000 -SHRA SCT018CB BKN038 08/05 Q0980 NOSIG -SHRA 29.9mph 43.7mph 8°C 5°C 7.3°C
07/01/23 14:30 EINN 071430Z 17016KT 9999 FEW018CB BKN200 08/04 Q0980 NOSIG 18.4mph 8°C 4°C 7.0°C
07/01/23 14:00 EINN 071400Z 19027KT 9999 FEW018CB SCT200 09/04 Q0980 NOSIG 31.1mph 9°C 4°C 8.0°C
07/01/23 13:30 EINN 071330Z 18021KT 9999 FEW018CB BKN200 08/04 Q0981 NOSIG 24.2mph 8°C 4°C 7.0°C
07/01/23 13:00 EINN 071300Z 19021KT 9999 FEW018CB SCT140 08/04 Q0981 NOSIG 24.2mph 8°C 4°C 7.0°C
07/01/23 12:30 EINN 071230Z 18022KT 9999 FEW023 SCT060 BKN200 08/03 Q0982 NOSIG 25.3mph 8°C 3°C 6.7°C
07/01/23 12:00 EINN 071200Z 18017KT 9999 FEW023 BKN090 08/03 Q0982 NOSIG 19.6mph 8°C 3°C 6.7°C
07/01/23 11:30 EINN 071130Z 17015KT 9999 FEW023 BKN200 07/03 Q0983 NOSIG 17.3mph 7°C 3°C 5.7°C
07/01/23 11:00 EINN 071100Z 17013KT 9999 FEW023 07/03 Q0984 NOSIG 15.0mph 7°C 3°C 5.7°C
07/01/23 10:30 EINN 071030Z 18015KT 9999 FEW023 07/03 Q0984 NOSIG 17.3mph 7°C 3°C 5.7°C
07/01/23 10:00 EINN 071000Z 15012KT 9999 FEW023 06/03 Q0984 NOSIG 13.8mph 6°C 3°C 4.7°C
07/01/23 09:00 EINN 070900Z 16010KT 9999 FEW023 BKN080 06/03 Q0985 NOSIG 11.5mph 6°C 3°C 4.7°C
07/01/23 08:00 EINN 070800Z 14009KT 9999 -SHRA BKN022 BKN030 06/04 Q0986 NOSIG -SHRA 10.4mph 6°C 4°C 5.0°C
07/01/23 07:30 EINN 070730Z 15009KT 9999 BKN045 BKN090 06/03 Q0986 NOSIG 10.4mph 6°C 3°C 4.7°C
07/01/23 07:00 EINN 070700Z 15008KT CAVOK 05/03 Q0987 NOSIG 9.2mph 5°C 3°C 3.7°C
07/01/23 06:30 EINN 070630Z 14008KT CAVOK 06/03 Q0987 NOSIG 9.2mph 6°C 3°C 4.7°C